Time;durP1;ratioP1;P1;durP2;ratioP2;P2;SDS_P1;SDS_P2;PMS_P1;PMS_P2;Temp;Humidity;BMP_temperature;BMP_pressure;BME280_temperature;BME280_humidity;BME280_pressure;Samples;Min_cycle;Max_cycle;Signal;HPM_P1;HPM_P2
2023/08/09 00:02:11;;;;;;;4.40;1.45;;;;;;;13.94;71.91;94186.94;5044691;28;20091;-77
2023/08/09 00:04:36;;;;;;;2.13;1.30;;;;;;;13.88;72.08;94180.22;5044724;28;20025;-76
2023/08/09 00:07:02;;;;;;;3.03;1.50;;;;;;;13.82;72.55;94191.13;5045644;28;20021;-76
2023/08/09 00:09:27;;;;;;;1.30;1.00;;;;;;;13.79;72.59;94189.09;5045619;28;20037;-74
2023/08/09 00:11:53;;;;;;;2.80;1.40;;;;;;;13.77;72.81;94193.22;5044530;28;20334;-74
2023/08/09 00:14:18;;;;;;;2.47;1.60;;;;;;;13.77;72.75;94188.63;5045572;28;20421;-75
2023/08/09 00:16:44;;;;;;;2.35;1.30;;;;;;;13.77;72.84;94188.63;5045553;28;20021;-75
2023/08/09 00:19:09;;;;;;;2.90;1.45;;;;;;;13.77;72.83;94185.94;5045459;28;20067;-75
2023/08/09 00:21:36;;;;;;;2.25;1.38;;;;;;;13.72;72.91;94180.78;5045536;28;20343;-75
2023/08/09 00:24:02;;;;;;;2.03;1.15;;;;;;;13.73;72.94;94181.56;5044788;28;20029;-75
2023/08/09 00:26:28;;;;;;;1.90;1.30;;;;;;;13.74;72.70;94186.63;5045265;28;20032;-75
2023/08/09 00:28:53;;;;;;;2.03;1.40;;;;;;;13.73;73.31;94184.25;5045277;28;20041;-75
2023/08/09 00:31:19;;;;;;;6.85;1.80;;;;;;;13.72;72.86;94185.34;5045315;28;20033;-75
2023/08/09 00:33:45;;;;;;;4.47;1.70;;;;;;;13.70;73.00;94176.84;5045434;28;20021;-75
2023/08/09 00:36:10;;;;;;;5.95;1.45;;;;;;;13.59;73.41;94174.56;5045280;28;20027;-75
2023/08/09 00:38:36;;;;;;;2.30;1.50;;;;;;;13.62;73.08;94175.81;5045393;28;20028;-74
2023/08/09 00:41:02;;;;;;;4.80;1.60;;;;;;;13.63;73.13;94177.38;5045040;28;20223;-75
2023/08/09 00:43:28;;;;;;;2.53;1.60;;;;;;;13.64;73.35;94177.06;5044719;28;20305;-74
2023/08/09 00:45:53;;;;;;;1.83;1.40;;;;;;;13.66;72.84;94168.69;5043606;28;20021;-75
2023/08/09 00:48:19;;;;;;;2.15;1.50;;;;;;;13.66;72.89;94179.41;5044348;28;20048;-75
2023/08/09 00:50:44;;;;;;;2.20;1.40;;;;;;;13.65;72.76;94172.47;5043791;28;20087;-75
2023/08/09 00:53:10;;;;;;;2.35;1.63;;;;;;;13.63;72.94;94178.16;5044884;28;20319;-75
2023/08/09 00:55:36;;;;;;;2.88;1.58;;;;;;;13.58;73.06;94170.31;5044908;28;20045;-75
2023/08/09 00:58:04;;;;;;;1.63;1.20;;;;;;;13.53;73.25;94183.88;5044683;28;20223;-75
2023/08/09 01:00:30;;;;;;;4.15;1.45;;;;;;;13.47;73.43;94165.66;5044706;28;20049;-75
2023/08/09 01:02:56;;;;;;;4.70;1.67;;;;;;;13.42;73.62;94174.66;5044609;28;20029;-75
2023/08/09 01:05:26;;;;;;;2.80;1.88;;;;;;;13.36;73.78;94166.03;5043613;28;20088;-75
2023/08/09 01:07:56;;;;;;;4.97;1.95;;;;;;;13.33;74.04;94172.03;5043370;28;20025;-75
2023/08/09 01:10:58;;;;;;;7.28;2.15;;;;;;;13.35;74.39;94169.00;5044341;28;20094;-75
2023/08/09 01:13:25;;;;;;;3.83;1.42;;;;;;;13.34;74.39;94170.13;5037616;28;20025;-75
2023/08/09 01:15:51;;;;;;;2.40;1.35;;;;;;;13.35;74.43;94175.16;5043087;28;20021;-75
2023/08/09 01:18:18;;;;;;;2.45;1.75;;;;;;;13.40;74.28;94169.63;5043117;28;20029;-75
2023/08/09 01:20:45;;;;;;;2.80;1.67;;;;;;;13.44;74.08;94170.53;5043161;28;20029;-75
2023/08/09 01:23:17;;;;;;;3.08;1.70;;;;;;;13.47;73.89;94168.31;5044227;28;20037;-75
2023/08/09 01:25:43;;;;;;;2.55;1.75;;;;;;;13.39;74.12;94172.63;5044218;28;20021;-75
2023/08/09 01:28:09;;;;;;;2.47;1.35;;;;;;;13.36;74.16;94173.28;5044252;28;20017;-75
2023/08/09 01:30:35;;;;;;;3.25;2.08;;;;;;;13.37;74.15;94175.63;5044392;28;20319;-76
2023/08/09 01:33:01;;;;;;;5.53;1.73;;;;;;;13.36;73.75;94163.34;5044069;28;20093;-75
2023/08/09 01:35:30;;;;;;;2.90;1.50;;;;;;;13.36;74.14;94167.91;5043125;28;20017;-75
2023/08/09 01:38:04;;;;;;;6.22;1.80;;;;;;;13.32;74.36;94170.44;5044052;28;20207;-75
2023/08/09 01:40:31;;;;;;;2.70;1.95;;;;;;;13.31;74.22;94168.88;5043845;28;20038;-79
2023/08/09 01:42:57;;;;;;;3.22;1.50;;;;;;;13.30;74.26;94164.63;5043945;28;20029;-78
2023/08/09 01:45:23;;;;;;;3.78;1.70;;;;;;;13.25;74.53;94175.50;5043832;28;20025;-79
2023/08/09 01:47:48;;;;;;;2.63;1.63;;;;;;;13.20;74.62;94176.44;5043867;28;20030;-79
2023/08/09 01:50:23;;;;;;;2.10;1.40;;;;;;;13.24;74.51;94176.59;5043596;28;20041;-79
2023/08/09 01:52:48;;;;;;;3.75;1.80;;;;;;;13.25;74.53;94162.91;5042474;28;20021;-79
2023/08/09 01:55:17;;;;;;;2.60;1.95;;;;;;;13.24;74.40;94177.38;5043754;28;20044;-79
2023/08/09 01:57:46;;;;;;;3.67;1.85;;;;;;;13.11;74.89;94173.03;5043663;28;20021;-78
2023/08/09 02:00:16;;;;;;;2.60;1.70;;;;;;;13.10;75.32;94181.38;5043598;28;20026;-78
2023/08/09 02:02:42;;;;;;;2.00;1.40;;;;;;;13.14;75.25;94177.72;5042349;28;20047;-78
2023/08/09 02:05:08;;;;;;;4.10;1.50;;;;;;;13.14;75.33;94174.28;5043447;28;20025;-78
2023/08/09 02:07:34;;;;;;;5.75;2.10;;;;;;;13.19;74.88;94176.78;5043622;28;20028;-75
2023/08/09 02:09:59;;;;;;;3.00;1.40;;;;;;;13.20;75.17;94179.13;5043347;28;20116;-75
2023/08/09 02:12:25;;;;;;;5.00;1.70;;;;;;;13.22;75.37;94168.88;5043432;28;20017;-75
2023/08/09 02:14:50;;;;;;;2.78;1.83;;;;;;;13.35;75.48;94179.72;5042070;28;20032;-75
2023/08/09 02:17:16;;;;;;;5.53;2.13;;;;;;;13.28;75.46;94174.06;5043285;28;20339;-75
2023/08/09 02:19:41;;;;;;;2.95;1.92;;;;;;;13.26;75.49;94179.72;5043371;28;20017;-75
2023/08/09 02:22:10;;;;;;;3.83;1.70;;;;;;;13.24;75.75;94166.66;5043384;28;20021;-77
2023/08/09 02:24:36;;;;;;;2.05;1.40;;;;;;;13.29;75.41;94167.59;5043303;28;20022;-77
2023/08/09 02:27:01;;;;;;;4.93;1.95;;;;;;;13.28;75.41;94164.13;5041949;28;20197;-77
2023/08/09 02:29:27;;;;;;;2.40;1.52;;;;;;;13.28;75.31;94180.19;5042909;28;20021;-76
2023/08/09 02:31:52;;;;;;;4.35;1.48;;;;;;;13.24;75.28;94172.03;5041902;28;20059;-77
2023/08/09 02:34:19;;;;;;;2.25;1.60;;;;;;;13.28;75.08;94176.75;5043119;28;20029;-76
2023/08/09 02:36:46;;;;;;;2.47;1.70;;;;;;;13.23;75.27;94181.16;5042977;28;20035;-76
2023/08/09 02:39:11;;;;;;;4.20;2.10;;;;;;;13.20;75.31;94179.13;5042961;28;20025;-76
2023/08/09 02:41:38;;;;;;;11.52;1.85;;;;;;;13.26;75.24;94174.38;5043017;28;20029;-76
2023/08/09 02:44:03;;;;;;;3.38;1.58;;;;;;;13.27;74.87;94191.22;5042974;28;20021;-77
2023/08/09 02:46:29;;;;;;;3.50;1.80;;;;;;;13.23;74.31;94188.41;5041640;28;20223;-76
2023/08/09 02:48:55;;;;;;;3.40;1.70;;;;;;;13.23;73.63;94185.75;5042703;28;20025;-77
2023/08/09 02:51:20;;;;;;;3.15;1.77;;;;;;;13.19;73.80;94196.31;5041671;28;20025;-76
2023/08/09 02:54:01;;;;;;;2.22;1.50;;;;;;;13.10;74.31;94192.06;5042936;28;20049;-75
2023/08/09 02:56:27;;;;;;;3.55;2.05;;;;;;;13.05;74.54;94193.81;5042822;28;20021;-75
2023/08/09 02:58:53;;;;;;;2.47;1.48;;;;;;;13.03;74.77;94189.91;5042826;28;20017;-75
2023/08/09 03:01:21;;;;;;;3.50;1.85;;;;;;;13.07;74.78;94195.38;5042840;28;20032;-76
2023/08/09 03:03:47;;;;;;;4.43;1.90;;;;;;;13.09;75.04;94198.53;5042429;28;20067;-76
2023/08/09 03:06:13;;;;;;;4.93;1.95;;;;;;;13.07;75.21;94198.88;5041449;28;20029;-76
2023/08/09 03:08:38;;;;;;;2.58;1.48;;;;;;;13.01;75.31;94195.56;5042579;28;20072;-76
2023/08/09 03:11:04;;;;;;;3.63;1.70;;;;;;;12.97;75.74;94194.63;5041452;28;20282;-76
2023/08/09 03:13:29;;;;;;;3.03;1.80;;;;;;;12.97;75.82;94197.31;5042644;28;20044;-75
2023/08/09 03:15:55;;;;;;;3.28;2.03;;;;;;;12.97;75.88;94205.34;5042669;28;20021;-75
2023/08/09 03:18:20;;;;;;;4.72;2.15;;;;;;;12.96;75.93;94209.09;5042553;28;20029;-75
2023/08/09 03:20:46;;;;;;;4.35;2.28;;;;;;;12.95;75.93;94210.22;5042543;28;20323;-75
2023/08/09 03:23:12;;;;;;;10.52;2.25;;;;;;;12.93;75.78;94214.34;5042297;28;20072;-75
2023/08/09 03:25:37;;;;;;;6.75;1.88;;;;;;;12.92;75.73;94199.38;5042579;28;20021;-75
2023/08/09 03:28:04;;;;;;;2.72;1.90;;;;;;;12.89;76.10;94205.38;5042434;28;20168;-75
2023/08/09 03:30:29;;;;;;;3.40;1.95;;;;;;;12.88;76.27;94207.25;5042431;28;20087;-74
2023/08/09 03:32:55;;;;;;;10.00;2.13;;;;;;;12.88;76.37;94206.47;5042314;28;20021;-74
2023/08/09 03:35:20;;;;;;;4.15;1.95;;;;;;;12.86;76.26;94209.44;5042283;28;20088;-74
2023/08/09 03:37:45;;;;;;;6.97;2.65;;;;;;;12.84;76.08;94209.78;5042228;28;20018;-74
2023/08/09 03:40:12;;;;;;;4.60;2.03;;;;;;;12.87;76.48;94205.69;5042351;28;20018;-74
2023/08/09 03:42:41;;;;;;;7.70;1.88;;;;;;;12.90;75.59;94215.72;5042487;28;20021;-74
2023/08/09 03:45:07;;;;;;;5.47;2.55;;;;;;;12.83;75.57;94221.56;5042457;28;20132;-75
2023/08/09 03:47:33;;;;;;;4.13;2.15;;;;;;;12.87;75.41;94218.28;5042190;28;20319;-75
2023/08/09 03:49:59;;;;;;;7.82;2.33;;;;;;;12.89;75.32;94222.19;5042176;28;20029;-76
2023/08/09 03:52:25;;;;;;;3.42;1.60;;;;;;;12.91;75.51;94228.03;5042451;28;20053;-76
2023/08/09 03:54:52;;;;;;;3.45;2.00;;;;;;;12.96;75.25;94230.50;5042179;28;20013;-76
2023/08/09 03:57:21;;;;;;;6.28;2.03;;;;;;;13.02;75.18;94228.47;5042223;28;20025;-76
2023/08/09 03:59:47;;;;;;;3.58;2.33;;;;;;;13.08;75.03;94226.41;5045697;28;20017;-76
2023/08/09 04:02:12;;;;;;;8.30;1.95;;;;;;;13.10;75.19;94232.22;5045779;28;20017;-76
2023/08/09 04:04:38;;;;;;;5.30;2.00;;;;;;;13.22;74.58;94235.00;5044679;28;20026;-77
2023/08/09 04:07:04;;;;;;;7.65;2.05;;;;;;;13.21;74.79;94228.09;5026323;28;20029;-77
2023/08/09 04:09:30;;;;;;;4.35;1.95;;;;;;;13.32;74.47;94239.28;5025502;28;20050;-77
2023/08/09 04:11:56;;;;;;;6.70;2.70;;;;;;;13.31;75.12;94235.81;5024726;28;20024;-75
2023/08/09 04:14:21;;;;;;;7.68;2.40;;;;;;;13.37;75.49;94233.72;5025826;28;20101;-76
2023/08/09 04:16:47;;;;;;;8.40;2.67;;;;;;;13.41;75.50;94238.13;5025555;28;20021;-76
2023/08/09 04:19:13;;;;;;;5.70;2.33;;;;;;;13.44;75.94;94229.44;5025666;28;20018;-77
2023/08/09 04:21:38;;;;;;;4.93;2.15;;;;;;;13.53;75.58;94234.75;5025684;28;20017;-77
2023/08/09 04:24:05;;;;;;;8.32;1.98;;;;;;;13.61;75.68;94235.84;5025763;28;20216;-76
2023/08/09 04:26:31;;;;;;;2.83;2.03;;;;;;;13.67;75.18;94237.22;5025440;28;20251;-77
2023/08/09 04:28:56;;;;;;;3.88;2.00;;;;;;;13.79;74.67;94231.19;5025516;28;20025;-77
2023/08/09 04:31:22;;;;;;;5.40;2.97;;;;;;;13.81;74.27;94228.97;5025463;28;20029;-77
2023/08/09 04:33:49;;;;;;;7.00;2.55;;;;;;;13.76;74.78;94232.63;5025584;28;20326;-77
2023/08/09 04:36:18;;;;;;;5.25;2.22;;;;;;;13.86;74.60;94228.78;5025389;28;20032;-77
2023/08/09 04:38:44;;;;;;;5.97;2.95;;;;;;;13.90;74.17;94231.59;5025196;28;20037;-77
2023/08/09 04:41:10;;;;;;;11.18;2.53;;;;;;;13.98;73.67;94241.47;5025214;28;20363;-77
2023/08/09 04:43:37;;;;;;;6.80;2.65;;;;;;;13.94;74.04;94235.19;5024145;28;20030;-77
2023/08/09 04:46:03;;;;;;;9.07;2.60;;;;;;;14.02;73.92;94237.03;5024229;28;20026;-77
2023/08/09 04:48:29;;;;;;;4.13;2.70;;;;;;;14.08;73.53;94233.03;5023987;28;20219;-77
2023/08/09 04:50:55;;;;;;;6.55;2.70;;;;;;;14.27;72.87;94226.44;5025074;28;20017;-76
2023/08/09 04:53:21;;;;;;;6.05;2.08;;;;;;;14.34;72.19;94229.41;5023885;28;20013;-77
2023/08/09 04:55:46;;;;;;;7.47;3.03;;;;;;;14.35;72.10;94229.09;5023858;28;20030;-78
2023/08/09 04:58:12;;;;;;;12.25;3.20;;;;;;;14.35;71.72;94239.00;5024970;28;20211;-78
2023/08/09 05:00:38;;;;;;;4.45;2.72;;;;;;;14.45;71.64;94233.28;5023941;28;20022;-78
2023/08/09 05:03:04;;;;;;;7.13;2.47;;;;;;;14.55;71.56;94226.69;5025184;28;20097;-78
2023/08/09 05:05:30;;;;;;;10.07;3.22;;;;;;;14.63;70.90;94229.34;5023696;28;20026;-77
2023/08/09 05:07:56;;;;;;;5.85;2.95;;;;;;;14.68;70.29;94227.59;5024791;28;20026;-77
2023/08/09 05:10:21;;;;;;;5.25;3.00;;;;;;;14.68;69.91;94235.63;5024310;28;20088;-76
2023/08/09 05:12:47;;;;;;;7.15;2.85;;;;;;;14.71;69.86;94241.09;5024674;28;20056;-76
2023/08/09 05:15:12;;;;;;;9.50;3.00;;;;;;;14.67;69.74;94239.41;5024877;28;20022;-75
2023/08/09 05:17:38;;;;;;;8.77;2.55;;;;;;;14.62;70.61;94238.50;5024625;28;20032;-75
2023/08/09 05:20:04;;;;;;;4.47;2.58;;;;;;;14.62;70.46;94238.50;5024731;28;20275;-76
2023/08/09 05:22:29;;;;;;;5.63;2.20;;;;;;;14.64;70.00;94243.53;5024323;28;20093;-76
2023/08/09 05:24:54;;;;;;;9.85;2.63;;;;;;;14.68;69.94;94257.88;5024408;28;20313;-75
2023/08/09 05:27:20;;;;;;;4.03;2.70;;;;;;;14.70;70.80;94260.22;5024468;28;20026;-76
2023/08/09 05:29:45;;;;;;;6.78;2.30;;;;;;;14.70;70.53;94262.91;5024616;28;20056;-75
2023/08/09 05:32:11;;;;;;;6.63;2.40;;;;;;;14.76;70.90;94256.22;5024205;28;20080;-75
2023/08/09 05:34:38;;;;;;;5.60;3.17;;;;;;;14.88;70.33;94261.66;5024369;28;20268;-75
2023/08/09 05:37:03;;;;;;;13.05;2.40;;;;;;;14.96;70.39;94260.78;5023235;28;20064;-75
2023/08/09 05:39:29;;;;;;;9.90;2.17;;;;;;;15.02;69.82;94251.41;5024152;28;20030;-76
2023/08/09 05:41:54;;;;;;;4.57;2.30;;;;;;;15.01;68.99;94257.88;5024092;28;20049;-76
2023/08/09 05:44:20;;;;;;;7.63;2.22;;;;;;;15.06;69.36;94256.88;5023892;28;20311;-75
2023/08/09 05:46:45;;;;;;;7.00;2.28;;;;;;;15.12;69.55;94249.41;5022972;28;20030;-75
2023/08/09 05:49:11;;;;;;;4.60;2.15;;;;;;;15.19;70.29;94244.28;5024012;28;20033;-75
2023/08/09 05:51:36;;;;;;;3.35;2.08;;;;;;;15.20;69.93;94245.84;5024119;28;20033;-76
2023/08/09 05:54:02;;;;;;;14.23;2.92;;;;;;;15.26;69.35;94247.19;5023820;28;20309;-75
2023/08/09 05:56:27;;;;;;;4.80;2.03;;;;;;;15.23;70.15;94250.56;5023748;28;20337;-76
2023/08/09 05:58:53;;;;;;;8.98;2.55;;;;;;;15.35;70.66;94255.19;5023864;28;20034;-76
2023/08/09 06:01:18;;;;;;;2.78;1.90;;;;;;;15.54;69.75;94249.25;5023755;28;20100;-77
2023/08/09 06:03:43;;;;;;;5.47;2.90;;;;;;;15.72;68.46;94252.53;5023623;28;20021;-77
2023/08/09 06:06:13;;;;;;;4.45;2.45;;;;;;;15.77;67.09;94244.25;5023535;28;20094;-75
2023/08/09 06:08:39;;;;;;;7.20;2.33;;;;;;;15.68;67.61;94248.94;5023708;28;20022;-75
2023/08/09 06:11:04;;;;;;;7.35;2.80;;;;;;;15.65;67.16;94242.31;5023665;28;20252;-75
2023/08/09 06:13:30;;;;;;;8.02;2.45;;;;;;;15.72;68.01;94247.97;5023469;28;20022;-75
2023/08/09 06:15:56;;;;;;;9.77;3.78;;;;;;;15.77;68.04;94247.75;5023215;28;20025;-75
2023/08/09 06:18:23;;;;;;;4.30;2.30;;;;;;;15.94;67.83;94245.97;5023188;28;20050;-75
2023/08/09 06:20:49;;;;;;;8.38;2.35;;;;;;;16.09;67.07;94250.63;5022892;28;20341;-75
2023/08/09 06:23:15;;;;;;;5.60;2.33;;;;;;;16.04;66.29;94248.97;5022057;28;20041;-75
2023/08/09 06:25:40;;;;;;;6.05;1.88;;;;;;;16.00;66.15;94241.91;5023350;28;20030;-75
2023/08/09 06:28:06;;;;;;;5.82;2.97;;;;;;;16.15;65.83;94243.13;5023235;28;20033;-81
2023/08/09 06:30:33;;;;;;;7.38;2.80;;;;;;;16.24;65.20;94236.50;5021795;28;20097;-79
2023/08/09 06:32:59;;;;;;;9.05;2.97;;;;;;;16.39;64.55;94236.91;5023447;28;20038;-82
2023/08/09 06:35:24;;;;;;;5.57;2.85;;;;;;;16.48;63.76;94237.56;5022041;28;20030;-81
2023/08/09 06:37:51;;;;;;;7.55;2.95;;;;;;;16.53;63.13;94240.00;5021205;28;20032;-81
2023/08/09 06:40:17;;;;;;;6.18;2.72;;;;;;;16.52;62.93;94234.97;5019782;28;20014;-81
2023/08/09 06:42:43;;;;;;;6.35;2.20;;;;;;;16.53;62.51;94233.84;5020381;28;20228;-81
2023/08/09 06:45:09;;;;;;;8.15;2.40;;;;;;;16.52;62.51;94234.97;5019348;28;20029;-81
2023/08/09 06:47:35;;;;;;;3.55;2.00;;;;;;;16.57;61.80;94234.75;5020445;28;20022;-80
2023/08/09 06:50:06;;;;;;;3.97;2.10;;;;;;;16.48;62.17;94237.56;5020246;28;20028;-81
2023/08/09 06:52:33;;;;;;;5.18;2.15;;;;;;;16.36;62.28;94240.28;5020889;28;20330;-81
2023/08/09 06:55:00;;;;;;;6.28;2.15;;;;;;;16.33;62.19;94230.22;5021231;28;20030;-81
2023/08/09 06:57:25;;;;;;;9.98;1.95;;;;;;;16.38;62.54;94235.34;5019936;28;20096;-81
2023/08/09 06:59:53;;;;;;;3.55;2.00;;;;;;;16.51;63.06;94228.81;5022370;28;20020;-81
2023/08/09 07:02:19;;;;;;;8.88;1.90;;;;;;;16.61;62.64;94225.63;5023001;28;20020;-81
2023/08/09 07:04:44;;;;;;;6.15;1.95;;;;;;;16.71;61.29;94223.56;5022817;28;20324;-81
2023/08/09 07:07:10;;;;;;;5.68;2.75;;;;;;;16.85;61.68;94229.38;5022721;28;20024;-81
2023/08/09 07:09:35;;;;;;;26.88;3.03;;;;;;;16.98;60.82;94228.19;5022951;28;20041;-81
2023/08/09 07:12:01;;;;;;;13.15;2.10;;;;;;;17.01;60.69;94230.19;5022943;28;20030;-81
2023/08/09 07:14:26;;;;;;;14.00;2.72;;;;;;;17.19;60.87;94224.50;5022785;28;20316;-81
2023/08/09 07:16:52;;;;;;;10.77;2.42;;;;;;;17.34;60.11;94223.75;5022776;28;20216;-81
2023/08/09 07:19:17;;;;;;;6.82;2.00;;;;;;;17.47;59.46;94226.34;5022769;28;20232;-81
2023/08/09 07:21:43;;;;;;;7.68;2.92;;;;;;;17.61;59.71;94213.22;5022815;28;20028;-81
2023/08/09 07:24:08;;;;;;;4.70;2.03;;;;;;;17.62;58.04;94222.88;5022909;28;20021;-81
2023/08/09 07:26:33;;;;;;;9.50;2.20;;;;;;;17.72;58.46;94214.25;5021641;28;20382;-81
2023/08/09 07:28:59;;;;;;;12.55;2.75;;;;;;;17.92;58.33;94212.44;5022588;28;20049;-81
2023/08/09 07:31:25;;;;;;;7.88;2.00;;;;;;;17.91;56.37;94213.56;5022671;28;20093;-81
2023/08/09 07:33:51;;;;;;;8.88;1.92;;;;;;;17.88;56.73;94205.41;5024701;28;20018;-81
2023/08/09 07:36:17;;;;;;;14.10;2.25;;;;;;;18.03;57.14;94209.97;5026628;28;20022;-80
2023/08/09 07:38:44;;;;;;;8.55;2.45;;;;;;;18.13;56.91;94214.81;5026595;28;20025;-81
2023/08/09 07:41:10;;;;;;;5.70;2.55;;;;;;;18.16;56.47;94214.13;5026399;28;20029;-81
2023/08/09 07:43:36;;;;;;;8.20;2.40;;;;;;;18.29;56.21;94203.22;5026333;28;20022;-81
2023/08/09 07:46:04;;;;;;;6.55;2.38;;;;;;;18.34;55.55;94202.91;5026316;28;20068;-81
2023/08/09 07:48:30;;;;;;;12.70;2.33;;;;;;;18.37;54.96;94208.38;5026200;28;20026;-81
2023/08/09 07:50:56;;;;;;;4.10;1.90;;;;;;;18.45;55.01;94204.69;5025229;28;20251;-81
2023/08/09 07:53:22;;;;;;;16.95;2.50;;;;;;;18.60;55.87;94200.41;5026336;28;20201;-81
2023/08/09 07:55:48;;;;;;;10.55;2.05;;;;;;;18.74;55.62;94204.50;5026055;28;20032;-81
2023/08/09 07:58:14;;;;;;;5.35;2.03;;;;;;;18.76;54.43;94199.53;5024970;28;20093;-81
2023/08/09 08:00:40;;;;;;;4.03;2.42;;;;;;;18.76;53.94;94191.41;5026102;28;20032;-81
2023/08/09 08:03:05;;;;;;;7.75;2.28;;;;;;;18.80;53.89;94190.38;5026224;28;20068;-81
2023/08/09 08:05:30;;;;;;;4.15;2.05;;;;;;;18.90;53.13;94191.72;5025860;28;20086;-81
2023/08/09 08:07:56;;;;;;;4.25;2.00;;;;;;;19.03;53.08;94189.63;5025892;28;20072;-81
2023/08/09 08:10:22;;;;;;;13.75;2.08;;;;;;;18.99;52.69;94191.50;5025807;28;20116;-81
2023/08/09 08:12:49;;;;;;;6.65;2.15;;;;;;;19.06;52.96;94191.63;5025971;28;20093;-82
2023/08/09 08:15:15;;;;;;;5.95;1.98;;;;;;;19.17;52.79;94194.50;5025804;28;20018;-82
2023/08/09 08:17:42;;;;;;;2.88;1.67;;;;;;;19.29;52.21;94199.75;5025732;28;20324;-82
2023/08/09 08:20:15;;;;;;;4.15;1.90;;;;;;;19.35;51.65;94195.59;5025916;28;20017;-81
2023/08/09 08:22:41;;;;;;;7.55;1.70;;;;;;;19.29;51.72;94185.47;5025739;28;20021;-82
2023/08/09 08:25:07;;;;;;;6.13;1.90;;;;;;;19.37;50.98;94182.50;5025814;28;20030;-82
2023/08/09 08:27:36;;;;;;;3.15;1.80;;;;;;;19.40;51.91;94178.31;5025788;28;20126;-82
2023/08/09 08:30:04;;;;;;;5.57;1.90;;;;;;;19.45;51.83;94186.88;5025341;28;20033;-82
2023/08/09 08:32:30;;;;;;;3.50;1.88;;;;;;;19.62;52.40;94187.53;5025403;28;20258;-82
2023/08/09 08:34:56;;;;;;;3.13;1.90;;;;;;;19.83;52.50;94182.50;5025456;28;20045;-82
2023/08/09 08:37:24;;;;;;;4.85;2.08;;;;;;;20.03;52.20;94185.13;5025091;28;20033;-82
2023/08/09 08:39:50;;;;;;;3.13;1.75;;;;;;;20.23;51.55;94178.44;5025430;28;20029;-82
2023/08/09 08:42:17;;;;;;;5.40;1.80;;;;;;;20.41;50.50;94184.09;5023949;28;20122;-81
2023/08/09 08:44:43;;;;;;;6.82;1.90;;;;;;;20.57;50.65;94174.97;5024794;28;20030;-82
2023/08/09 08:47:08;;;;;;;3.97;1.98;;;;;;;20.64;48.62;94181.28;5025456;28;20052;-82
2023/08/09 08:49:36;;;;;;;4.47;1.88;;;;;;;20.66;49.21;94172.00;5025372;28;20093;-82
2023/08/09 08:52:06;;;;;;;4.38;2.03;;;;;;;20.81;49.88;94163.66;5025106;28;20022;-82
2023/08/09 08:54:32;;;;;;;6.03;1.65;;;;;;;20.93;49.35;94168.06;5025119;28;20033;-82
2023/08/09 08:56:57;;;;;;;4.90;1.70;;;;;;;21.08;47.88;94165.50;5025080;28;20324;-82
2023/08/09 08:59:23;;;;;;;6.30;2.03;;;;;;;21.08;46.90;94151.94;5024941;28;20232;-82
2023/08/09 09:01:49;;;;;;;2.95;1.80;;;;;;;21.07;47.11;94155.81;5024899;28;20025;-82
2023/08/09 09:04:14;;;;;;;10.80;2.45;;;;;;;21.13;47.49;94148.91;5024847;28;20033;-82
2023/08/09 09:06:41;;;;;;;5.05;1.90;;;;;;;21.24;47.59;94145.13;5024745;28;20072;-82
2023/08/09 09:09:11;;;;;;;6.40;2.00;;;;;;;21.40;48.54;94149.53;5024834;28;20022;-82
2023/08/09 09:11:36;;;;;;;2.80;1.90;;;;;;;21.53;47.32;94139.19;5024839;28;20245;-81
2023/08/09 09:14:09;;;;;;;5.82;2.22;;;;;;;21.63;47.25;94143.91;5024756;28;20022;-82
2023/08/09 09:16:35;;;;;;;3.13;1.60;;;;;;;21.75;46.40;94148.25;5024958;28;20088;-83
2023/08/09 09:19:02;;;;;;;6.70;1.98;;;;;;;21.89;45.41;94136.72;5024617;28;20318;-82
2023/08/09 09:21:32;;;;;;;5.97;3.17;;;;;;;22.00;46.10;94149.22;5024529;28;20041;-82
2023/08/09 09:24:05;;;;;;;3.97;1.70;;;;;;;22.20;45.71;94140.78;5024567;28;20026;-82
2023/08/09 09:26:31;;;;;;;3.97;1.42;;;;;;;22.26;44.80;94146.66;5024579;28;20208;-81
2023/08/09 09:28:57;;;;;;;3.55;1.50;;;;;;;22.20;44.24;94141.53;5024250;28;20033;-82
2023/08/09 09:31:34;;;;;;;3.10;2.10;;;;;;;22.31;44.35;94135.41;5024337;28;20232;-82
2023/08/09 09:34:00;;;;;;;3.13;1.45;;;;;;;22.43;44.38;94129.69;5024327;28;20330;-82
2023/08/09 09:36:25;;;;;;;5.07;1.40;;;;;;;22.71;44.38;94128.22;5023133;28;20033;-82
2023/08/09 09:38:53;;;;;;;3.83;1.50;;;;;;;22.93;44.31;94126.31;5022848;28;20033;-82
2023/08/09 09:41:19;;;;;;;1.90;1.10;;;;;;;23.01;41.45;94123.25;5024254;28;20323;-82
2023/08/09 09:43:47;;;;;;;2.22;1.40;;;;;;;22.99;42.12;94117.41;5024206;28;20084;-82
2023/08/09 09:46:42;;;;;;;3.70;1.63;;;;;;;23.14;43.23;94120.16;5024174;28;20030;-82
2023/08/09 09:49:08;;;;;;;4.88;1.45;;;;;;;23.28;41.80;94106.59;5023819;28;20030;-82
2023/08/09 09:51:34;;;;;;;3.03;1.23;;;;;;;23.42;42.15;94106.59;5024063;28;20101;-82
2023/08/09 09:54:00;;;;;;;7.05;1.30;;;;;;;23.49;41.64;94096.88;5022726;28;20021;-82
2023/08/09 09:56:25;;;;;;;3.08;1.92;;;;;;;23.63;40.83;94097.66;5023267;28;20084;-82
2023/08/09 09:58:51;;;;;;;7.07;1.70;;;;;;;23.81;41.10;94088.69;5022737;28;20336;-82
2023/08/09 10:01:20;;;;;;;7.40;1.42;;;;;;;23.98;40.74;94098.00;5023864;28;20018;-82
2023/08/09 10:03:48;;;;;;;3.90;1.30;;;;;;;24.08;39.70;94094.47;5022280;28;20045;-81
2023/08/09 10:06:28;;;;;;;4.85;1.42;;;;;;;24.03;39.78;94089.44;5022659;28;20018;-82
2023/08/09 10:08:56;;;;;;;3.50;1.40;;;;;;;24.20;38.07;94096.78;5023843;28;20021;-82
2023/08/09 10:11:23;;;;;;;8.18;1.60;;;;;;;24.10;38.80;94105.75;5023485;28;20038;-81
2023/08/09 10:13:50;;;;;;;4.25;1.52;;;;;;;24.35;37.54;94081.16;5023612;28;20101;-82
2023/08/09 10:16:19;;;;;;;2.58;1.20;;;;;;;24.43;37.13;94076.44;5023657;28;20046;-81
2023/08/09 10:18:49;;;;;;;8.15;1.10;;;;;;;24.42;36.68;94074.88;5023646;28;20029;-82
2023/08/09 10:21:17;;;;;;;8.13;1.42;;;;;;;24.45;37.14;94067.88;5023641;28;20074;-81
2023/08/09 10:24:05;;;;;;;3.33;1.48;;;;;;;24.60;37.95;94072.88;5023460;28;20025;-82
2023/08/09 10:26:31;;;;;;;1.67;1.08;;;;;;;24.89;37.35;94069.97;5023193;28;20033;-82
2023/08/09 10:29:06;;;;;;;1.85;1.10;;;;;;;25.08;36.65;94070.66;5023430;28;20030;-82
2023/08/09 10:31:53;;;;;;;3.67;1.55;;;;;;;25.15;36.19;94062.41;5023452;28;20018;-82
2023/08/09 10:34:36;;;;;;;6.30;1.35;;;;;;;25.35;36.76;94057.22;5022002;28;20022;-82
2023/08/09 10:37:05;;;;;;;5.82;1.17;;;;;;;25.37;36.38;94057.59;5023143;28;20056;-82
2023/08/09 10:39:33;;;;;;;4.63;1.13;;;;;;;25.52;35.52;94055.50;5023001;28;20040;-81
2023/08/09 10:42:01;;;;;;;7.68;1.52;;;;;;;25.62;36.73;94054.63;5023111;28;20264;-82
2023/08/09 10:44:35;;;;;;;4.18;1.15;;;;;;;25.74;35.67;94053.34;5023105;28;20033;-82
2023/08/09 10:47:02;;;;;;;2.67;1.48;;;;;;;25.68;34.65;94044.81;5022864;28;20033;-81
2023/08/09 10:49:49;;;;;;;7.90;1.52;;;;;;;25.68;34.36;94039.34;5022854;28;20097;-81
2023/08/09 10:52:15;;;;;;;5.43;1.45;;;;;;;25.55;34.41;94039.09;5022919;28;20092;-82
2023/08/09 10:54:41;;;;;;;2.53;1.40;;;;;;;25.45;34.48;94039.22;5022999;28;20230;-81
2023/08/09 10:57:09;;;;;;;6.53;1.27;;;;;;;25.50;34.51;94036.03;5023017;28;20053;-82
2023/08/09 10:59:37;;;;;;;2.85;1.13;;;;;;;25.66;34.37;94032.75;5023248;28;20096;-82
2023/08/09 11:02:06;;;;;;;2.15;1.48;;;;;;;25.91;35.63;94027.06;5023135;28;20026;-82
2023/08/09 11:04:33;;;;;;;4.15;1.40;;;;;;;26.16;33.88;94037.72;5022673;28;20040;-82
2023/08/09 11:06:59;;;;;;;4.60;1.13;;;;;;;26.40;33.06;94022.97;5024813;28;20032;-82
2023/08/09 11:09:26;;;;;;;2.00;1.20;;;;;;;26.51;33.02;94024.78;5029461;28;20033;-82
2023/08/09 11:11:53;;;;;;;3.38;1.08;;;;;;;26.63;32.54;94016.06;5029540;28;20101;-82
2023/08/09 11:14:22;;;;;;;6.28;1.58;;;;;;;26.74;32.78;94013.16;5029359;28;20256;-82
2023/08/09 11:16:49;;;;;;;3.20;1.20;;;;;;;26.92;32.54;94010.94;5029409;28;20041;-81
2023/08/09 11:19:16;;;;;;;5.22;1.27;;;;;;;27.17;32.17;94009.75;5029579;28;20072;-82
2023/08/09 11:21:52;;;;;;;4.75;1.30;;;;;;;27.38;31.53;94009.44;5029306;28;20251;-82
2023/08/09 11:24:20;;;;;;;3.35;1.50;;;;;;;27.56;31.20;94005.59;5029351;28;20042;-81
2023/08/09 11:26:48;;;;;;;2.55;1.40;;;;;;;27.63;31.33;93991.03;5029429;28;20232;-81
2023/08/09 11:29:15;;;;;;;5.13;1.20;;;;;;;27.67;31.07;93995.25;5029367;28;20025;-81
2023/08/09 11:31:42;;;;;;;2.38;1.05;;;;;;;27.79;30.97;93989.13;5029146;28;20076;-81